sensor_id;sensor_type;location;lat;lon;timestamp;temperature;humidity
10644;DHT22;5370;50.132;8.626;2023-05-09T00:00:26;16.40;92.10
10644;DHT22;5370;50.132;8.626;2023-05-09T00:02:52;16.40;92.10
10644;DHT22;5370;50.132;8.626;2023-05-09T00:05:19;16.40;92.10
10644;DHT22;5370;50.132;8.626;2023-05-09T00:07:46;16.40;92.10
10644;DHT22;5370;50.132;8.626;2023-05-09T00:10:11;16.40;92.10
10644;DHT22;5370;50.132;8.626;2023-05-09T00:12:37;16.40;92.10
10644;DHT22;5370;50.132;8.626;2023-05-09T00:15:03;16.40;92.20
10644;DHT22;5370;50.132;8.626;2023-05-09T00:17:29;16.40;92.20
10644;DHT22;5370;50.132;8.626;2023-05-09T00:19:55;16.40;92.20
10644;DHT22;5370;50.132;8.626;2023-05-09T00:22:20;16.40;92.10
10644;DHT22;5370;50.132;8.626;2023-05-09T00:24:47;16.30;92.10
10644;DHT22;5370;50.132;8.626;2023-05-09T00:27:13;16.30;92.20
10644;DHT22;5370;50.132;8.626;2023-05-09T00:29:39;16.30;92.30
10644;DHT22;5370;50.132;8.626;2023-05-09T00:32:04;16.20;92.30
10644;DHT22;5370;50.132;8.626;2023-05-09T00:34:30;16.30;92.40
10644;DHT22;5370;50.132;8.626;2023-05-09T00:36:55;16.20;92.50
10644;DHT22;5370;50.132;8.626;2023-05-09T00:39:21;16.20;92.60
10644;DHT22;5370;50.132;8.626;2023-05-09T00:41:47;16.20;92.60
10644;DHT22;5370;50.132;8.626;2023-05-09T00:44:12;16.20;92.70
10644;DHT22;5370;50.132;8.626;2023-05-09T00:46:38;16.20;93.10
10644;DHT22;5370;50.132;8.626;2023-05-09T00:49:04;16.20;92.80
10644;DHT22;5370;50.132;8.626;2023-05-09T00:51:30;16.20;92.90
10644;DHT22;5370;50.132;8.626;2023-05-09T00:53:57;16.20;92.90
10644;DHT22;5370;50.132;8.626;2023-05-09T00:56:22;16.20;93.00
10644;DHT22;5370;50.132;8.626;2023-05-09T00:58:48;16.20;93.00
10644;DHT22;5370;50.132;8.626;2023-05-09T01:01:14;16.30;93.10
10644;DHT22;5370;50.132;8.626;2023-05-09T01:03:41;16.30;93.20
10644;DHT22;5370;50.132;8.626;2023-05-09T01:06:16;16.30;93.30
10644;DHT22;5370;50.132;8.626;2023-05-09T01:08:58;16.40;93.30
10644;DHT22;5370;50.132;8.626;2023-05-09T01:11:40;16.40;93.30
10644;DHT22;5370;50.132;8.626;2023-05-09T01:14:28;16.40;93.30
10644;DHT22;5370;50.132;8.626;2023-05-09T01:17:10;16.40;93.30
10644;DHT22;5370;50.132;8.626;2023-05-09T01:22:37;16.40;93.40
10644;DHT22;5370;50.132;8.626;2023-05-09T01:28:08;16.50;93.50
10644;DHT22;5370;50.132;8.626;2023-05-09T01:30:37;16.50;93.50
10644;DHT22;5370;50.132;8.626;2023-05-09T01:33:05;16.50;93.50
10644;DHT22;5370;50.132;8.626;2023-05-09T01:35:33;16.50;93.90
10644;DHT22;5370;50.132;8.626;2023-05-09T01:38:00;16.50;93.50
10644;DHT22;5370;50.132;8.626;2023-05-09T01:40:29;16.50;93.60
10644;DHT22;5370;50.132;8.626;2023-05-09T01:43:02;16.50;93.60
10644;DHT22;5370;50.132;8.626;2023-05-09T01:45:29;16.50;93.60
10644;DHT22;5370;50.132;8.626;2023-05-09T01:47:56;16.50;93.60
10644;DHT22;5370;50.132;8.626;2023-05-09T01:50:23;16.50;93.50
10644;DHT22;5370;50.132;8.626;2023-05-09T01:52:52;16.50;93.50
10644;DHT22;5370;50.132;8.626;2023-05-09T01:55:20;16.40;93.50
10644;DHT22;5370;50.132;8.626;2023-05-09T01:57:47;16.40;93.50
10644;DHT22;5370;50.132;8.626;2023-05-09T02:00:14;16.40;93.50
10644;DHT22;5370;50.132;8.626;2023-05-09T02:02:44;16.30;93.50
10644;DHT22;5370;50.132;8.626;2023-05-09T02:05:10;16.20;93.60
10644;DHT22;5370;50.132;8.626;2023-05-09T02:07:37;16.10;93.70
10644;DHT22;5370;50.132;8.626;2023-05-09T02:10:04;16.00;93.80
10644;DHT22;5370;50.132;8.626;2023-05-09T02:12:31;15.90;93.90
10644;DHT22;5370;50.132;8.626;2023-05-09T02:14:57;15.90;94.10
10644;DHT22;5370;50.132;8.626;2023-05-09T02:17:22;15.80;94.20
10644;DHT22;5370;50.132;8.626;2023-05-09T02:19:48;15.80;94.40
10644;DHT22;5370;50.132;8.626;2023-05-09T02:22:14;15.70;94.50
10644;DHT22;5370;50.132;8.626;2023-05-09T02:24:41;15.70;94.70
10644;DHT22;5370;50.132;8.626;2023-05-09T02:27:07;15.60;94.90
10644;DHT22;5370;50.132;8.626;2023-05-09T02:29:46;15.50;95.00
10644;DHT22;5370;50.132;8.626;2023-05-09T02:32:23;15.50;95.40
10644;DHT22;5370;50.132;8.626;2023-05-09T02:34:51;15.50;95.70
10644;DHT22;5370;50.132;8.626;2023-05-09T02:37:18;15.50;96.00
10644;DHT22;5370;50.132;8.626;2023-05-09T02:39:44;15.50;96.20
10644;DHT22;5370;50.132;8.626;2023-05-09T02:42:10;15.60;96.30
10644;DHT22;5370;50.132;8.626;2023-05-09T02:44:36;15.60;96.30
10644;DHT22;5370;50.132;8.626;2023-05-09T02:47:04;15.60;96.30
10644;DHT22;5370;50.132;8.626;2023-05-09T02:49:29;15.70;96.40
10644;DHT22;5370;50.132;8.626;2023-05-09T02:51:55;15.70;96.40
10644;DHT22;5370;50.132;8.626;2023-05-09T02:54:20;15.60;96.30
10644;DHT22;5370;50.132;8.626;2023-05-09T02:56:46;15.60;96.30
10644;DHT22;5370;50.132;8.626;2023-05-09T02:59:12;15.60;96.20
10644;DHT22;5370;50.132;8.626;2023-05-09T03:01:37;15.50;96.20
10644;DHT22;5370;50.132;8.626;2023-05-09T03:04:03;15.40;96.30
10644;DHT22;5370;50.132;8.626;2023-05-09T03:06:28;15.40;96.40
10644;DHT22;5370;50.132;8.626;2023-05-09T03:08:54;15.40;96.60
10644;DHT22;5370;50.132;8.626;2023-05-09T03:11:19;15.40;96.80
10644;DHT22;5370;50.132;8.626;2023-05-09T03:13:45;15.30;96.90
10644;DHT22;5370;50.132;8.626;2023-05-09T03:16:12;15.40;97.10
10644;DHT22;5370;50.132;8.626;2023-05-09T03:18:38;15.30;97.10
10644;DHT22;5370;50.132;8.626;2023-05-09T03:21:04;15.30;97.10
10644;DHT22;5370;50.132;8.626;2023-05-09T03:23:29;15.30;97.20
10644;DHT22;5370;50.132;8.626;2023-05-09T03:25:55;15.30;97.20
10644;DHT22;5370;50.132;8.626;2023-05-09T03:28:20;15.20;97.20
10644;DHT22;5370;50.132;8.626;2023-05-09T03:30:46;15.20;97.30
10644;DHT22;5370;50.132;8.626;2023-05-09T03:33:11;15.10;97.30
10644;DHT22;5370;50.132;8.626;2023-05-09T03:35:37;15.10;97.40
10644;DHT22;5370;50.132;8.626;2023-05-09T03:38:02;15.00;97.50
10644;DHT22;5370;50.132;8.626;2023-05-09T03:40:28;15.00;97.70
10644;DHT22;5370;50.132;8.626;2023-05-09T03:42:53;14.90;97.80
10644;DHT22;5370;50.132;8.626;2023-05-09T03:45:19;14.90;97.90
10644;DHT22;5370;50.132;8.626;2023-05-09T03:47:45;14.90;98.10
10644;DHT22;5370;50.132;8.626;2023-05-09T03:50:10;14.90;98.20
10644;DHT22;5370;50.132;8.626;2023-05-09T03:52:36;14.90;98.30
10644;DHT22;5370;50.132;8.626;2023-05-09T03:55:02;14.90;98.40
10644;DHT22;5370;50.132;8.626;2023-05-09T03:57:28;14.90;98.50
10644;DHT22;5370;50.132;8.626;2023-05-09T03:59:53;14.90;98.60
10644;DHT22;5370;50.132;8.626;2023-05-09T04:02:19;14.90;98.70
10644;DHT22;5370;50.132;8.626;2023-05-09T04:04:44;14.90;98.80
10644;DHT22;5370;50.132;8.626;2023-05-09T04:07:11;14.90;98.80
10644;DHT22;5370;50.132;8.626;2023-05-09T04:09:37;14.90;98.90
10644;DHT22;5370;50.132;8.626;2023-05-09T04:12:02;15.00;98.90
10644;DHT22;5370;50.132;8.626;2023-05-09T04:14:28;15.00;99.10
10644;DHT22;5370;50.132;8.626;2023-05-09T04:16:53;15.10;99.20
10644;DHT22;5370;50.132;8.626;2023-05-09T04:19:19;15.10;99.20
10644;DHT22;5370;50.132;8.626;2023-05-09T04:21:44;15.20;99.40
10644;DHT22;5370;50.132;8.626;2023-05-09T04:24:10;15.20;99.40
10644;DHT22;5370;50.132;8.626;2023-05-09T04:26:36;15.30;99.40
10644;DHT22;5370;50.132;8.626;2023-05-09T04:29:03;15.40;99.30
10644;DHT22;5370;50.132;8.626;2023-05-09T04:31:28;15.50;99.20
10644;DHT22;5370;50.132;8.626;2023-05-09T04:33:55;15.60;99.00
10644;DHT22;5370;50.132;8.626;2023-05-09T04:36:22;15.80;99.00
10644;DHT22;5370;50.132;8.626;2023-05-09T04:38:48;15.90;98.80
10644;DHT22;5370;50.132;8.626;2023-05-09T04:41:13;16.00;98.60
10644;DHT22;5370;50.132;8.626;2023-05-09T04:43:39;16.20;98.50
10644;DHT22;5370;50.132;8.626;2023-05-09T04:46:04;16.30;98.20
10644;DHT22;5370;50.132;8.626;2023-05-09T04:48:30;16.50;97.90
10644;DHT22;5370;50.132;8.626;2023-05-09T04:50:55;16.60;97.40
10644;DHT22;5370;50.132;8.626;2023-05-09T04:53:21;16.80;96.90
10644;DHT22;5370;50.132;8.626;2023-05-09T04:55:47;16.70;96.20
10644;DHT22;5370;50.132;8.626;2023-05-09T04:58:12;16.80;95.90
10644;DHT22;5370;50.132;8.626;2023-05-09T05:00:38;16.80;95.70
10644;DHT22;5370;50.132;8.626;2023-05-09T05:03:03;16.90;95.70
10644;DHT22;5370;50.132;8.626;2023-05-09T05:05:29;17.00;95.60
10644;DHT22;5370;50.132;8.626;2023-05-09T05:07:55;17.10;95.40
10644;DHT22;5370;50.132;8.626;2023-05-09T05:10:20;17.20;95.20
10644;DHT22;5370;50.132;8.626;2023-05-09T05:12:46;17.30;94.90
10644;DHT22;5370;50.132;8.626;2023-05-09T05:15:12;17.50;94.70
10644;DHT22;5370;50.132;8.626;2023-05-09T05:17:37;17.70;94.10
10644;DHT22;5370;50.132;8.626;2023-05-09T05:20:03;17.80;93.60
10644;DHT22;5370;50.132;8.626;2023-05-09T05:22:31;17.90;93.20
10644;DHT22;5370;50.132;8.626;2023-05-09T05:24:56;18.10;93.00
10644;DHT22;5370;50.132;8.626;2023-05-09T05:27:22;18.20;92.50
10644;DHT22;5370;50.132;8.626;2023-05-09T05:29:47;18.20;91.60
10644;DHT22;5370;50.132;8.626;2023-05-09T05:32:13;18.20;91.30
10644;DHT22;5370;50.132;8.626;2023-05-09T05:34:38;18.20;91.30
10644;DHT22;5370;50.132;8.626;2023-05-09T05:37:04;18.30;91.30
10644;DHT22;5370;50.132;8.626;2023-05-09T05:39:30;18.40;91.20
10644;DHT22;5370;50.132;8.626;2023-05-09T05:41:55;18.60;91.10
10644;DHT22;5370;50.132;8.626;2023-05-09T05:44:21;18.90;90.90
10644;DHT22;5370;50.132;8.626;2023-05-09T05:46:46;19.30;90.60
10644;DHT22;5370;50.132;8.626;2023-05-09T05:49:12;19.80;90.00
10644;DHT22;5370;50.132;8.626;2023-05-09T05:51:37;20.40;88.80
10644;DHT22;5370;50.132;8.626;2023-05-09T05:54:03;21.10;86.70
10644;DHT22;5370;50.132;8.626;2023-05-09T05:56:28;21.60;84.40
10644;DHT22;5370;50.132;8.626;2023-05-09T05:58:54;22.10;80.90
10644;DHT22;5370;50.132;8.626;2023-05-09T06:01:20;22.40;78.20
10644;DHT22;5370;50.132;8.626;2023-05-09T06:03:45;22.60;75.80
10644;DHT22;5370;50.132;8.626;2023-05-09T06:06:11;22.90;73.80
10644;DHT22;5370;50.132;8.626;2023-05-09T06:08:36;23.10;72.20
10644;DHT22;5370;50.132;8.626;2023-05-09T06:11:02;23.50;70.70
10644;DHT22;5370;50.132;8.626;2023-05-09T06:13:27;24.30;69.50
10644;DHT22;5370;50.132;8.626;2023-05-09T06:15:56;25.20;66.40
10644;DHT22;5370;50.132;8.626;2023-05-09T06:18:22;26.30;62.50
10644;DHT22;5370;50.132;8.626;2023-05-09T06:20:47;27.20;59.10
10644;DHT22;5370;50.132;8.626;2023-05-09T06:23:13;27.50;56.30
10644;DHT22;5370;50.132;8.626;2023-05-09T06:25:38;27.30;54.60
10644;DHT22;5370;50.132;8.626;2023-05-09T06:28:04;26.90;54.20
10644;DHT22;5370;50.132;8.626;2023-05-09T06:30:29;26.40;54.20
10644;DHT22;5370;50.132;8.626;2023-05-09T06:32:55;25.80;54.50
10644;DHT22;5370;50.132;8.626;2023-05-09T06:35:22;25.30;55.00
10644;DHT22;5370;50.132;8.626;2023-05-09T06:37:48;24.80;55.60
10644;DHT22;5370;50.132;8.626;2023-05-09T06:40:15;24.40;56.10
10644;DHT22;5370;50.132;8.626;2023-05-09T06:42:40;24.10;56.70
10644;DHT22;5370;50.132;8.626;2023-05-09T06:45:06;23.90;57.30
10644;DHT22;5370;50.132;8.626;2023-05-09T06:47:32;23.70;57.70
10644;DHT22;5370;50.132;8.626;2023-05-09T06:49:57;23.60;57.90
10644;DHT22;5370;50.132;8.626;2023-05-09T06:52:23;23.50;57.90
10644;DHT22;5370;50.132;8.626;2023-05-09T06:54:48;23.50;58.10
10644;DHT22;5370;50.132;8.626;2023-05-09T06:57:14;23.50;58.40
10644;DHT22;5370;50.132;8.626;2023-05-09T06:59:39;23.50;58.40
10644;DHT22;5370;50.132;8.626;2023-05-09T07:02:05;23.70;58.60
10644;DHT22;5370;50.132;8.626;2023-05-09T07:04:31;24.10;58.40
10644;DHT22;5370;50.132;8.626;2023-05-09T07:06:56;24.50;57.80
10644;DHT22;5370;50.132;8.626;2023-05-09T07:09:23;25.10;57.20
10644;DHT22;5370;50.132;8.626;2023-05-09T07:11:52;26.00;56.20
10644;DHT22;5370;50.132;8.626;2023-05-09T07:14:18;26.80;54.40
10644;DHT22;5370;50.132;8.626;2023-05-09T07:16:44;27.40;52.50
10644;DHT22;5370;50.132;8.626;2023-05-09T07:19:11;28.30;51.60
10644;DHT22;5370;50.132;8.626;2023-05-09T07:21:36;29.50;49.50
10644;DHT22;5370;50.132;8.626;2023-05-09T07:24:02;30.80;46.90
10644;DHT22;5370;50.132;8.626;2023-05-09T07:26:28;31.70;44.60
10644;DHT22;5370;50.132;8.626;2023-05-09T07:28:53;32.50;42.40
10644;DHT22;5370;50.132;8.626;2023-05-09T07:31:19;32.80;40.70
10644;DHT22;5370;50.132;8.626;2023-05-09T07:33:44;32.60;38.30
10644;DHT22;5370;50.132;8.626;2023-05-09T07:36:10;31.80;38.70
10644;DHT22;5370;50.132;8.626;2023-05-09T07:38:38;31.00;40.20
10644;DHT22;5370;50.132;8.626;2023-05-09T07:41:04;30.30;41.30
10644;DHT22;5370;50.132;8.626;2023-05-09T07:43:30;29.50;42.10
10644;DHT22;5370;50.132;8.626;2023-05-09T07:45:56;28.80;43.20
10644;DHT22;5370;50.132;8.626;2023-05-09T07:48:21;28.00;44.10
10644;DHT22;5370;50.132;8.626;2023-05-09T07:50:47;27.20;45.20
10644;DHT22;5370;50.132;8.626;2023-05-09T07:53:12;26.40;46.50
10644;DHT22;5370;50.132;8.626;2023-05-09T07:55:38;25.80;47.70
10644;DHT22;5370;50.132;8.626;2023-05-09T07:58:03;25.20;48.80
10644;DHT22;5370;50.132;8.626;2023-05-09T08:00:29;24.60;49.80
10644;DHT22;5370;50.132;8.626;2023-05-09T08:02:54;24.10;50.60
10644;DHT22;5370;50.132;8.626;2023-05-09T08:05:20;23.70;51.80
10644;DHT22;5370;50.132;8.626;2023-05-09T08:07:46;23.30;52.70
10644;DHT22;5370;50.132;8.626;2023-05-09T08:10:11;23.10;53.50
10644;DHT22;5370;50.132;8.626;2023-05-09T08:12:37;22.80;54.10
10644;DHT22;5370;50.132;8.626;2023-05-09T08:15:03;22.60;54.90
10644;DHT22;5370;50.132;8.626;2023-05-09T08:17:29;22.40;55.50
10644;DHT22;5370;50.132;8.626;2023-05-09T08:19:54;22.40;56.10
10644;DHT22;5370;50.132;8.626;2023-05-09T08:22:20;22.40;56.60
10644;DHT22;5370;50.132;8.626;2023-05-09T08:24:46;22.40;56.90
10644;DHT22;5370;50.132;8.626;2023-05-09T08:27:12;22.40;57.10
10644;DHT22;5370;50.132;8.626;2023-05-09T08:29:39;22.40;57.30
10644;DHT22;5370;50.132;8.626;2023-05-09T08:32:05;22.40;57.50
10644;DHT22;5370;50.132;8.626;2023-05-09T08:34:31;22.40;57.70
10644;DHT22;5370;50.132;8.626;2023-05-09T08:36:59;22.30;57.80
10644;DHT22;5370;50.132;8.626;2023-05-09T08:39:25;22.30;58.00
10644;DHT22;5370;50.132;8.626;2023-05-09T08:41:51;22.30;58.20
10644;DHT22;5370;50.132;8.626;2023-05-09T08:44:18;22.30;58.30
10644;DHT22;5370;50.132;8.626;2023-05-09T08:46:44;22.30;58.30
10644;DHT22;5370;50.132;8.626;2023-05-09T08:49:12;22.40;58.40
10644;DHT22;5370;50.132;8.626;2023-05-09T08:51:38;22.40;58.40
10644;DHT22;5370;50.132;8.626;2023-05-09T08:54:04;22.40;58.40
10644;DHT22;5370;50.132;8.626;2023-05-09T08:56:31;22.40;58.40
10644;DHT22;5370;50.132;8.626;2023-05-09T08:58:57;22.40;58.60
10644;DHT22;5370;50.132;8.626;2023-05-09T09:01:24;22.40;58.70
10644;DHT22;5370;50.132;8.626;2023-05-09T09:03:51;22.50;58.90
10644;DHT22;5370;50.132;8.626;2023-05-09T09:06:16;22.50;58.80
10644;DHT22;5370;50.132;8.626;2023-05-09T09:08:43;22.50;58.80
10644;DHT22;5370;50.132;8.626;2023-05-09T09:11:12;22.50;58.70
10644;DHT22;5370;50.132;8.626;2023-05-09T09:13:39;22.50;58.60
10644;DHT22;5370;50.132;8.626;2023-05-09T09:16:09;22.50;58.50
10644;DHT22;5370;50.132;8.626;2023-05-09T09:18:36;22.50;58.50
10644;DHT22;5370;50.132;8.626;2023-05-09T09:21:06;22.60;58.40
10644;DHT22;5370;50.132;8.626;2023-05-09T09:23:33;22.50;58.40
10644;DHT22;5370;50.132;8.626;2023-05-09T09:26:02;22.50;58.40
10644;DHT22;5370;50.132;8.626;2023-05-09T09:28:29;22.40;58.50
10644;DHT22;5370;50.132;8.626;2023-05-09T09:30:54;22.40;58.60
10644;DHT22;5370;50.132;8.626;2023-05-09T09:33:24;22.40;58.60
10644;DHT22;5370;50.132;8.626;2023-05-09T09:35:52;22.30;58.60
10644;DHT22;5370;50.132;8.626;2023-05-09T09:38:18;22.20;58.60
10644;DHT22;5370;50.132;8.626;2023-05-09T09:40:54;22.10;58.80
10644;DHT22;5370;50.132;8.626;2023-05-09T09:43:26;22.10;59.30
10644;DHT22;5370;50.132;8.626;2023-05-09T09:45:52;22.10;60.00
10644;DHT22;5370;50.132;8.626;2023-05-09T09:48:23;22.10;60.00
10644;DHT22;5370;50.132;8.626;2023-05-09T09:50:49;22.10;60.20
10644;DHT22;5370;50.132;8.626;2023-05-09T09:53:14;22.20;60.10
10644;DHT22;5370;50.132;8.626;2023-05-09T09:55:49;22.20;59.80
10644;DHT22;5370;50.132;8.626;2023-05-09T09:58:17;22.10;60.80
10644;DHT22;5370;50.132;8.626;2023-05-09T10:00:43;22.20;61.20
10644;DHT22;5370;50.132;8.626;2023-05-09T10:03:14;22.20;61.00
10644;DHT22;5370;50.132;8.626;2023-05-09T10:05:42;22.20;60.70
10644;DHT22;5370;50.132;8.626;2023-05-09T10:08:08;22.20;60.60
10644;DHT22;5370;50.132;8.626;2023-05-09T10:10:35;22.10;60.40
10644;DHT22;5370;50.132;8.626;2023-05-09T10:13:07;22.10;60.60
10644;DHT22;5370;50.132;8.626;2023-05-09T10:15:34;22.20;61.00
10644;DHT22;5370;50.132;8.626;2023-05-09T10:18:01;22.20;61.30
10644;DHT22;5370;50.132;8.626;2023-05-09T10:20:30;22.30;61.60
10644;DHT22;5370;50.132;8.626;2023-05-09T10:22:57;22.20;61.40
10644;DHT22;5370;50.132;8.626;2023-05-09T10:25:39;22.30;61.60
10644;DHT22;5370;50.132;8.626;2023-05-09T10:28:14;22.20;61.50
10644;DHT22;5370;50.132;8.626;2023-05-09T10:33:23;22.20;62.20
10644;DHT22;5370;50.132;8.626;2023-05-09T10:35:51;22.10;61.30
10644;DHT22;5370;50.132;8.626;2023-05-09T10:38:19;22.10;62.00
10644;DHT22;5370;50.132;8.626;2023-05-09T10:40:48;22.20;61.30
10644;DHT22;5370;50.132;8.626;2023-05-09T10:43:14;22.30;61.30
10644;DHT22;5370;50.132;8.626;2023-05-09T10:45:40;22.50;61.90
10644;DHT22;5370;50.132;8.626;2023-05-09T10:48:06;22.60;60.80
10644;DHT22;5370;50.132;8.626;2023-05-09T10:50:33;22.80;60.50
10644;DHT22;5370;50.132;8.626;2023-05-09T10:58:24;23.30;59.20
10644;DHT22;5370;50.132;8.626;2023-05-09T11:00:58;23.40;59.50
10644;DHT22;5370;50.132;8.626;2023-05-09T11:03:25;23.70;59.60
10644;DHT22;5370;50.132;8.626;2023-05-09T11:05:52;24.10;58.80
10644;DHT22;5370;50.132;8.626;2023-05-09T11:08:26;24.40;58.00
10644;DHT22;5370;50.132;8.626;2023-05-09T11:10:54;24.60;57.40
10644;DHT22;5370;50.132;8.626;2023-05-09T11:13:24;24.90;56.90
10644;DHT22;5370;50.132;8.626;2023-05-09T11:16:03;25.10;56.20
10644;DHT22;5370;50.132;8.626;2023-05-09T11:18:30;25.40;56.20
10644;DHT22;5370;50.132;8.626;2023-05-09T11:20:57;25.60;55.20
10644;DHT22;5370;50.132;8.626;2023-05-09T11:23:28;25.90;54.70
10644;DHT22;5370;50.132;8.626;2023-05-09T11:26:04;26.20;54.20
10644;DHT22;5370;50.132;8.626;2023-05-09T11:28:35;26.40;53.00
10644;DHT22;5370;50.132;8.626;2023-05-09T11:31:09;26.40;52.60
10644;DHT22;5370;50.132;8.626;2023-05-09T11:33:36;26.40;52.10
10644;DHT22;5370;50.132;8.626;2023-05-09T11:36:28;26.20;52.10
10644;DHT22;5370;50.132;8.626;2023-05-09T11:39:02;25.90;52.10
10644;DHT22;5370;50.132;8.626;2023-05-09T11:41:29;25.70;52.60
10644;DHT22;5370;50.132;8.626;2023-05-09T11:43:55;25.60;52.80
10644;DHT22;5370;50.132;8.626;2023-05-09T11:46:21;25.50;53.00
10644;DHT22;5370;50.132;8.626;2023-05-09T11:48:47;25.30;52.80
10644;DHT22;5370;50.132;8.626;2023-05-09T11:51:17;25.00;53.20
10644;DHT22;5370;50.132;8.626;2023-05-09T11:53:43;24.60;53.40
10644;DHT22;5370;50.132;8.626;2023-05-09T11:56:12;24.30;54.10
10644;DHT22;5370;50.132;8.626;2023-05-09T11:58:38;24.10;54.50
10644;DHT22;5370;50.132;8.626;2023-05-09T12:01:04;23.90;54.80
10644;DHT22;5370;50.132;8.626;2023-05-09T12:03:30;23.70;55.30
10644;DHT22;5370;50.132;8.626;2023-05-09T12:05:56;23.50;55.60
10644;DHT22;5370;50.132;8.626;2023-05-09T12:08:23;23.40;56.10
10644;DHT22;5370;50.132;8.626;2023-05-09T12:10:49;23.10;56.30
10644;DHT22;5370;50.132;8.626;2023-05-09T12:13:15;23.00;56.80
10644;DHT22;5370;50.132;8.626;2023-05-09T12:15:40;22.90;57.00
10644;DHT22;5370;50.132;8.626;2023-05-09T12:18:06;22.90;57.40
10644;DHT22;5370;50.132;8.626;2023-05-09T12:20:58;22.90;57.60
10644;DHT22;5370;50.132;8.626;2023-05-09T12:23:24;22.90;57.90
10644;DHT22;5370;50.132;8.626;2023-05-09T12:25:55;22.90;58.30
10644;DHT22;5370;50.132;8.626;2023-05-09T12:28:25;22.90;59.20
10644;DHT22;5370;50.132;8.626;2023-05-09T12:30:52;22.70;60.20
10644;DHT22;5370;50.132;8.626;2023-05-09T12:33:18;22.60;61.00
10644;DHT22;5370;50.132;8.626;2023-05-09T12:35:47;22.60;61.60
10644;DHT22;5370;50.132;8.626;2023-05-09T12:38:23;22.50;62.60
10644;DHT22;5370;50.132;8.626;2023-05-09T12:41:02;22.50;63.40
10644;DHT22;5370;50.132;8.626;2023-05-09T12:43:35;22.50;63.70
10644;DHT22;5370;50.132;8.626;2023-05-09T12:46:01;22.40;64.10
10644;DHT22;5370;50.132;8.626;2023-05-09T12:48:28;22.30;64.60
10644;DHT22;5370;50.132;8.626;2023-05-09T12:50:54;22.20;65.30
10644;DHT22;5370;50.132;8.626;2023-05-09T12:53:27;22.10;66.00
10644;DHT22;5370;50.132;8.626;2023-05-09T12:56:04;22.10;66.40
10644;DHT22;5370;50.132;8.626;2023-05-09T12:58:35;22.00;66.80
10644;DHT22;5370;50.132;8.626;2023-05-09T13:01:03;22.00;67.10
10644;DHT22;5370;50.132;8.626;2023-05-09T13:03:29;22.00;67.50
10644;DHT22;5370;50.132;8.626;2023-05-09T13:06:03;22.00;67.90
10644;DHT22;5370;50.132;8.626;2023-05-09T13:08:31;22.00;68.40
10644;DHT22;5370;50.132;8.626;2023-05-09T13:10:58;22.00;68.80
10644;DHT22;5370;50.132;8.626;2023-05-09T13:13:25;22.10;68.90
10644;DHT22;5370;50.132;8.626;2023-05-09T13:15:52;22.20;69.20
10644;DHT22;5370;50.132;8.626;2023-05-09T13:18:18;22.20;69.40
10644;DHT22;5370;50.132;8.626;2023-05-09T13:20:44;22.30;69.50
10644;DHT22;5370;50.132;8.626;2023-05-09T13:23:10;22.40;69.80
10644;DHT22;5370;50.132;8.626;2023-05-09T13:25:35;22.40;69.70
10644;DHT22;5370;50.132;8.626;2023-05-09T13:28:01;22.40;69.80
10644;DHT22;5370;50.132;8.626;2023-05-09T13:30:27;22.50;69.90
10644;DHT22;5370;50.132;8.626;2023-05-09T13:32:53;22.50;69.90
10644;DHT22;5370;50.132;8.626;2023-05-09T13:35:19;22.50;69.60
10644;DHT22;5370;50.132;8.626;2023-05-09T13:37:44;22.60;69.50
10644;DHT22;5370;50.132;8.626;2023-05-09T13:40:11;22.60;69.60
10644;DHT22;5370;50.132;8.626;2023-05-09T13:42:37;22.60;69.70
10644;DHT22;5370;50.132;8.626;2023-05-09T13:45:03;22.70;69.40
10644;DHT22;5370;50.132;8.626;2023-05-09T13:47:29;22.70;68.90
10644;DHT22;5370;50.132;8.626;2023-05-09T13:49:55;22.80;68.80
10644;DHT22;5370;50.132;8.626;2023-05-09T13:52:20;22.90;68.90
10644;DHT22;5370;50.132;8.626;2023-05-09T13:54:46;23.00;69.30
10644;DHT22;5370;50.132;8.626;2023-05-09T13:57:12;23.10;69.20
10644;DHT22;5370;50.132;8.626;2023-05-09T13:59:37;23.10;68.80
10644;DHT22;5370;50.132;8.626;2023-05-09T14:02:06;23.20;68.60
10644;DHT22;5370;50.132;8.626;2023-05-09T14:04:32;23.20;68.40
10644;DHT22;5370;50.132;8.626;2023-05-09T14:06:59;23.10;67.80
10644;DHT22;5370;50.132;8.626;2023-05-09T14:09:25;22.90;67.60
10644;DHT22;5370;50.132;8.626;2023-05-09T14:11:53;22.80;67.80
10644;DHT22;5370;50.132;8.626;2023-05-09T14:14:19;22.60;68.40
10644;DHT22;5370;50.132;8.626;2023-05-09T14:16:45;22.50;69.30
10644;DHT22;5370;50.132;8.626;2023-05-09T14:19:11;22.40;69.80
10644;DHT22;5370;50.132;8.626;2023-05-09T14:21:37;22.40;70.00
10644;DHT22;5370;50.132;8.626;2023-05-09T14:24:04;22.30;70.10
10644;DHT22;5370;50.132;8.626;2023-05-09T14:26:29;22.30;70.50
10644;DHT22;5370;50.132;8.626;2023-05-09T14:28:55;22.20;70.80
10644;DHT22;5370;50.132;8.626;2023-05-09T14:31:21;22.10;71.40
10644;DHT22;5370;50.132;8.626;2023-05-09T14:33:47;22.00;71.50
10644;DHT22;5370;50.132;8.626;2023-05-09T14:36:12;21.90;71.60
10644;DHT22;5370;50.132;8.626;2023-05-09T14:38:38;21.70;72.00
10644;DHT22;5370;50.132;8.626;2023-05-09T14:41:04;21.60;72.60
10644;DHT22;5370;50.132;8.626;2023-05-09T14:43:31;21.50;73.10
10644;DHT22;5370;50.132;8.626;2023-05-09T14:46:00;21.30;73.50
10644;DHT22;5370;50.132;8.626;2023-05-09T14:48:25;21.30;74.20
10644;DHT22;5370;50.132;8.626;2023-05-09T14:50:51;21.20;74.90
10644;DHT22;5370;50.132;8.626;2023-05-09T14:53:21;21.10;75.60
10644;DHT22;5370;50.132;8.626;2023-05-09T14:55:49;21.00;76.30
10644;DHT22;5370;50.132;8.626;2023-05-09T14:58:16;21.00;76.90
10644;DHT22;5370;50.132;8.626;2023-05-09T15:00:43;20.90;77.60
10644;DHT22;5370;50.132;8.626;2023-05-09T15:03:08;20.90;78.40
10644;DHT22;5370;50.132;8.626;2023-05-09T15:05:35;20.80;79.00
10644;DHT22;5370;50.132;8.626;2023-05-09T15:08:00;20.70;79.40
10644;DHT22;5370;50.132;8.626;2023-05-09T15:10:26;20.60;80.20
10644;DHT22;5370;50.132;8.626;2023-05-09T15:12:52;20.50;81.10
10644;DHT22;5370;50.132;8.626;2023-05-09T15:15:19;20.50;82.00
10644;DHT22;5370;50.132;8.626;2023-05-09T15:17:45;20.50;82.50
10644;DHT22;5370;50.132;8.626;2023-05-09T15:20:12;20.40;82.90
10644;DHT22;5370;50.132;8.626;2023-05-09T15:22:39;20.40;83.70
10644;DHT22;5370;50.132;8.626;2023-05-09T15:25:08;20.40;84.50
10644;DHT22;5370;50.132;8.626;2023-05-09T15:27:36;20.40;85.10
10644;DHT22;5370;50.132;8.626;2023-05-09T15:30:03;20.40;85.70
10644;DHT22;5370;50.132;8.626;2023-05-09T15:32:30;20.30;86.20
10644;DHT22;5370;50.132;8.626;2023-05-09T15:34:55;20.30;86.90
10644;DHT22;5370;50.132;8.626;2023-05-09T15:37:21;20.30;87.30
10644;DHT22;5370;50.132;8.626;2023-05-09T15:39:46;20.30;87.80
10644;DHT22;5370;50.132;8.626;2023-05-09T15:42:13;20.30;88.50
10644;DHT22;5370;50.132;8.626;2023-05-09T15:44:40;20.20;89.20
10644;DHT22;5370;50.132;8.626;2023-05-09T15:47:06;20.20;90.00
10644;DHT22;5370;50.132;8.626;2023-05-09T15:49:32;20.20;90.20
10644;DHT22;5370;50.132;8.626;2023-05-09T15:51:58;20.10;90.60
10644;DHT22;5370;50.132;8.626;2023-05-09T15:54:24;20.10;91.40
10644;DHT22;5370;50.132;8.626;2023-05-09T15:56:51;20.00;91.40